sensor_id;sensor_type;location;lat;lon;timestamp;P1;durP1;ratioP1;P2;durP2;ratioP2
47539;SDS011;33280;52.152;21.052;2023-04-24T00:02:00;14.17;;;7.37;;
47539;SDS011;33280;52.152;21.052;2023-04-24T00:04:27;12.63;;;6.97;;
47539;SDS011;33280;52.152;21.052;2023-04-24T00:06:54;10.40;;;6.67;;
47539;SDS011;33280;52.152;21.052;2023-04-24T00:09:23;9.93;;;6.87;;
47539;SDS011;33280;52.152;21.052;2023-04-24T00:11:51;10.90;;;6.90;;
47539;SDS011;33280;52.152;21.052;2023-04-24T00:14:21;12.57;;;7.20;;
47539;SDS011;33280;52.152;21.052;2023-04-24T00:16:48;14.33;;;7.50;;
47539;SDS011;33280;52.152;21.052;2023-04-24T00:19:15;13.17;;;7.27;;
47539;SDS011;33280;52.152;21.052;2023-04-24T00:21:42;14.20;;;7.93;;
47539;SDS011;33280;52.152;21.052;2023-04-24T00:24:09;15.13;;;7.70;;
47539;SDS011;33280;52.152;21.052;2023-04-24T00:26:36;12.70;;;7.53;;
47539;SDS011;33280;52.152;21.052;2023-04-24T00:29:03;12.77;;;7.70;;
47539;SDS011;33280;52.152;21.052;2023-04-24T00:31:30;10.97;;;7.07;;
47539;SDS011;33280;52.152;21.052;2023-04-24T00:33:57;11.77;;;7.60;;
47539;SDS011;33280;52.152;21.052;2023-04-24T00:36:24;11.70;;;7.57;;
47539;SDS011;33280;52.152;21.052;2023-04-24T00:38:51;11.13;;;7.30;;
47539;SDS011;33280;52.152;21.052;2023-04-24T00:41:18;12.40;;;7.17;;
47539;SDS011;33280;52.152;21.052;2023-04-24T00:43:45;12.07;;;7.53;;
47539;SDS011;33280;52.152;21.052;2023-04-24T00:46:12;14.73;;;7.63;;
47539;SDS011;33280;52.152;21.052;2023-04-24T00:48:40;15.57;;;7.70;;
47539;SDS011;33280;52.152;21.052;2023-04-24T00:51:07;12.30;;;7.17;;
47539;SDS011;33280;52.152;21.052;2023-04-24T00:53:34;11.23;;;7.10;;
47539;SDS011;33280;52.152;21.052;2023-04-24T00:56:01;11.07;;;7.33;;
47539;SDS011;33280;52.152;21.052;2023-04-24T00:58:29;12.53;;;7.90;;
47539;SDS011;33280;52.152;21.052;2023-04-24T01:00:57;11.10;;;7.30;;
47539;SDS011;33280;52.152;21.052;2023-04-24T01:03:28;13.30;;;7.43;;
47539;SDS011;33280;52.152;21.052;2023-04-24T01:05:58;12.27;;;7.63;;
47539;SDS011;33280;52.152;21.052;2023-04-24T01:08:26;13.40;;;7.80;;
47539;SDS011;33280;52.152;21.052;2023-04-24T01:10:54;12.70;;;7.53;;
47539;SDS011;33280;52.152;21.052;2023-04-24T01:13:23;12.70;;;7.80;;
47539;SDS011;33280;52.152;21.052;2023-04-24T01:15:50;13.63;;;8.33;;
47539;SDS011;33280;52.152;21.052;2023-04-24T01:18:17;14.10;;;7.87;;
47539;SDS011;33280;52.152;21.052;2023-04-24T01:20:44;14.63;;;8.17;;
47539;SDS011;33280;52.152;21.052;2023-04-24T01:23:12;13.83;;;7.67;;
47539;SDS011;33280;52.152;21.052;2023-04-24T01:25:40;16.43;;;8.07;;
47539;SDS011;33280;52.152;21.052;2023-04-24T01:28:07;11.40;;;8.13;;
47539;SDS011;33280;52.152;21.052;2023-04-24T01:30:33;11.53;;;7.77;;
47539;SDS011;33280;52.152;21.052;2023-04-24T01:33:00;12.50;;;7.67;;
47539;SDS011;33280;52.152;21.052;2023-04-24T01:35:28;14.73;;;7.47;;
47539;SDS011;33280;52.152;21.052;2023-04-24T01:37:55;13.03;;;8.13;;
47539;SDS011;33280;52.152;21.052;2023-04-24T01:40:21;12.57;;;7.70;;
47539;SDS011;33280;52.152;21.052;2023-04-24T01:42:48;12.27;;;7.90;;
47539;SDS011;33280;52.152;21.052;2023-04-24T01:45:16;16.00;;;8.30;;
47539;SDS011;33280;52.152;21.052;2023-04-24T01:47:44;12.20;;;8.20;;
47539;SDS011;33280;52.152;21.052;2023-04-24T01:50:12;12.70;;;7.73;;
47539;SDS011;33280;52.152;21.052;2023-04-24T01:52:40;13.13;;;7.93;;
47539;SDS011;33280;52.152;21.052;2023-04-24T01:55:08;11.83;;;7.90;;
47539;SDS011;33280;52.152;21.052;2023-04-24T01:57:36;12.43;;;7.27;;
47539;SDS011;33280;52.152;21.052;2023-04-24T02:00:04;12.17;;;7.47;;
47539;SDS011;33280;52.152;21.052;2023-04-24T02:02:35;11.97;;;7.90;;
47539;SDS011;33280;52.152;21.052;2023-04-24T02:05:03;13.07;;;7.53;;
47539;SDS011;33280;52.152;21.052;2023-04-24T02:07:32;13.10;;;8.40;;
47539;SDS011;33280;52.152;21.052;2023-04-24T02:09:59;12.07;;;8.37;;
47539;SDS011;33280;52.152;21.052;2023-04-24T02:12:26;14.10;;;7.80;;
47539;SDS011;33280;52.152;21.052;2023-04-24T02:14:53;12.93;;;8.10;;
47539;SDS011;33280;52.152;21.052;2023-04-24T02:17:20;12.73;;;8.10;;
47539;SDS011;33280;52.152;21.052;2023-04-24T02:19:47;10.93;;;7.30;;
47539;SDS011;33280;52.152;21.052;2023-04-24T02:22:14;14.43;;;8.60;;
47539;SDS011;33280;52.152;21.052;2023-04-24T02:24:41;11.50;;;8.13;;
47539;SDS011;33280;52.152;21.052;2023-04-24T02:27:08;12.37;;;8.17;;
47539;SDS011;33280;52.152;21.052;2023-04-24T02:29:34;16.80;;;8.83;;
47539;SDS011;33280;52.152;21.052;2023-04-24T02:32:01;12.63;;;8.30;;
47539;SDS011;33280;52.152;21.052;2023-04-24T02:34:28;13.80;;;8.17;;
47539;SDS011;33280;52.152;21.052;2023-04-24T02:36:55;14.33;;;8.60;;
47539;SDS011;33280;52.152;21.052;2023-04-24T02:39:22;14.73;;;9.23;;
47539;SDS011;33280;52.152;21.052;2023-04-24T02:41:49;14.90;;;8.63;;
47539;SDS011;33280;52.152;21.052;2023-04-24T02:44:16;12.57;;;8.70;;
47539;SDS011;33280;52.152;21.052;2023-04-24T02:46:51;13.13;;;8.43;;
47539;SDS011;33280;52.152;21.052;2023-04-24T02:49:20;14.90;;;8.50;;
47539;SDS011;33280;52.152;21.052;2023-04-24T02:51:46;13.17;;;7.97;;
47539;SDS011;33280;52.152;21.052;2023-04-24T02:54:13;15.97;;;8.60;;
47539;SDS011;33280;52.152;21.052;2023-04-24T02:56:40;13.40;;;7.93;;
47539;SDS011;33280;52.152;21.052;2023-04-24T02:59:07;13.83;;;8.33;;
47539;SDS011;33280;52.152;21.052;2023-04-24T03:01:34;12.37;;;8.43;;
47539;SDS011;33280;52.152;21.052;2023-04-24T03:04:01;14.93;;;8.70;;
47539;SDS011;33280;52.152;21.052;2023-04-24T03:06:30;15.50;;;8.70;;
47539;SDS011;33280;52.152;21.052;2023-04-24T03:08:59;15.13;;;8.60;;
47539;SDS011;33280;52.152;21.052;2023-04-24T03:11:26;14.40;;;8.47;;
47539;SDS011;33280;52.152;21.052;2023-04-24T03:13:53;13.27;;;8.37;;
47539;SDS011;33280;52.152;21.052;2023-04-24T03:16:20;13.53;;;8.77;;
47539;SDS011;33280;52.152;21.052;2023-04-24T03:18:47;13.80;;;8.70;;
47539;SDS011;33280;52.152;21.052;2023-04-24T03:21:14;15.70;;;9.30;;
47539;SDS011;33280;52.152;21.052;2023-04-24T03:23:41;14.87;;;9.10;;
47539;SDS011;33280;52.152;21.052;2023-04-24T03:26:08;16.43;;;9.00;;
47539;SDS011;33280;52.152;21.052;2023-04-24T03:28:35;13.53;;;8.83;;
47539;SDS011;33280;52.152;21.052;2023-04-24T03:31:02;14.50;;;8.50;;
47539;SDS011;33280;52.152;21.052;2023-04-24T03:33:30;14.23;;;9.27;;
47539;SDS011;33280;52.152;21.052;2023-04-24T03:35:56;14.63;;;9.13;;
47539;SDS011;33280;52.152;21.052;2023-04-24T03:38:23;15.20;;;9.07;;
47539;SDS011;33280;52.152;21.052;2023-04-24T03:40:50;14.57;;;9.17;;
47539;SDS011;33280;52.152;21.052;2023-04-24T03:43:17;15.17;;;8.50;;
47539;SDS011;33280;52.152;21.052;2023-04-24T03:45:44;15.07;;;9.37;;
47539;SDS011;33280;52.152;21.052;2023-04-24T03:48:11;14.80;;;8.90;;
47539;SDS011;33280;52.152;21.052;2023-04-24T03:50:38;16.67;;;9.43;;
47539;SDS011;33280;52.152;21.052;2023-04-24T03:53:05;14.30;;;8.90;;
47539;SDS011;33280;52.152;21.052;2023-04-24T03:55:32;13.10;;;8.90;;
47539;SDS011;33280;52.152;21.052;2023-04-24T03:58:00;15.53;;;8.73;;
47539;SDS011;33280;52.152;21.052;2023-04-24T04:00:27;15.07;;;9.23;;
47539;SDS011;33280;52.152;21.052;2023-04-24T04:02:54;13.80;;;8.40;;
47539;SDS011;33280;52.152;21.052;2023-04-24T04:05:21;13.17;;;8.50;;
47539;SDS011;33280;52.152;21.052;2023-04-24T04:07:48;16.17;;;9.43;;
47539;SDS011;33280;52.152;21.052;2023-04-24T04:10:15;14.10;;;8.97;;
47539;SDS011;33280;52.152;21.052;2023-04-24T04:12:43;12.60;;;8.70;;
47539;SDS011;33280;52.152;21.052;2023-04-24T04:15:10;14.83;;;8.93;;
47539;SDS011;33280;52.152;21.052;2023-04-24T04:17:37;14.63;;;8.63;;
47539;SDS011;33280;52.152;21.052;2023-04-24T04:20:04;15.30;;;8.97;;
47539;SDS011;33280;52.152;21.052;2023-04-24T04:22:38;13.50;;;8.60;;
47539;SDS011;33280;52.152;21.052;2023-04-24T04:25:08;13.87;;;8.40;;
47539;SDS011;33280;52.152;21.052;2023-04-24T04:27:35;14.47;;;8.60;;
47539;SDS011;33280;52.152;21.052;2023-04-24T04:30:02;14.50;;;8.60;;
47539;SDS011;33280;52.152;21.052;2023-04-24T04:32:31;13.03;;;9.13;;
47539;SDS011;33280;52.152;21.052;2023-04-24T04:35:02;17.90;;;9.17;;
47539;SDS011;33280;52.152;21.052;2023-04-24T04:37:30;14.80;;;8.80;;
47539;SDS011;33280;52.152;21.052;2023-04-24T04:39:59;14.07;;;8.40;;
47539;SDS011;33280;52.152;21.052;2023-04-24T04:42:26;14.40;;;8.97;;
47539;SDS011;33280;52.152;21.052;2023-04-24T04:44:54;12.70;;;8.20;;
47539;SDS011;33280;52.152;21.052;2023-04-24T04:47:23;14.33;;;8.50;;
47539;SDS011;33280;52.152;21.052;2023-04-24T04:49:50;20.13;;;9.50;;
47539;SDS011;33280;52.152;21.052;2023-04-24T04:52:20;13.63;;;8.67;;
47539;SDS011;33280;52.152;21.052;2023-04-24T04:54:51;13.00;;;8.77;;
47539;SDS011;33280;52.152;21.052;2023-04-24T04:57:18;12.63;;;8.40;;
47539;SDS011;33280;52.152;21.052;2023-04-24T04:59:45;16.00;;;8.27;;
47539;SDS011;33280;52.152;21.052;2023-04-24T05:02:12;12.20;;;8.57;;
47539;SDS011;33280;52.152;21.052;2023-04-24T05:04:39;13.43;;;8.40;;
47539;SDS011;33280;52.152;21.052;2023-04-24T05:07:07;14.70;;;8.90;;
47539;SDS011;33280;52.152;21.052;2023-04-24T05:09:35;14.90;;;8.63;;
47539;SDS011;33280;52.152;21.052;2023-04-24T05:12:02;12.40;;;8.47;;
47539;SDS011;33280;52.152;21.052;2023-04-24T05:14:29;14.60;;;8.63;;
47539;SDS011;33280;52.152;21.052;2023-04-24T05:16:56;12.30;;;8.00;;
47539;SDS011;33280;52.152;21.052;2023-04-24T05:19:23;16.70;;;8.90;;
47539;SDS011;33280;52.152;21.052;2023-04-24T05:21:50;14.87;;;8.90;;
47539;SDS011;33280;52.152;21.052;2023-04-24T05:24:17;12.80;;;8.27;;
47539;SDS011;33280;52.152;21.052;2023-04-24T05:26:47;14.10;;;8.30;;
47539;SDS011;33280;52.152;21.052;2023-04-24T05:29:15;15.67;;;8.53;;
47539;SDS011;33280;52.152;21.052;2023-04-24T05:31:42;176.00;;;16.60;;
47539;SDS011;33280;52.152;21.052;2023-04-24T05:34:09;14.90;;;8.40;;
47539;SDS011;33280;52.152;21.052;2023-04-24T05:36:36;15.97;;;8.70;;
47539;SDS011;33280;52.152;21.052;2023-04-24T05:39:03;24.27;;;9.13;;
47539;SDS011;33280;52.152;21.052;2023-04-24T05:41:33;15.47;;;8.37;;
47539;SDS011;33280;52.152;21.052;2023-04-24T05:44:01;13.50;;;8.80;;
47539;SDS011;33280;52.152;21.052;2023-04-24T05:46:27;14.87;;;8.47;;
47539;SDS011;33280;52.152;21.052;2023-04-24T05:48:54;15.20;;;8.80;;
47539;SDS011;33280;52.152;21.052;2023-04-24T05:51:21;15.87;;;8.70;;
47539;SDS011;33280;52.152;21.052;2023-04-24T05:53:49;18.83;;;8.83;;
47539;SDS011;33280;52.152;21.052;2023-04-24T05:56:15;26.07;;;9.90;;
47539;SDS011;33280;52.152;21.052;2023-04-24T05:58:43;13.37;;;8.70;;
47539;SDS011;33280;52.152;21.052;2023-04-24T06:01:09;13.57;;;8.27;;
47539;SDS011;33280;52.152;21.052;2023-04-24T06:03:37;14.07;;;8.80;;
47539;SDS011;33280;52.152;21.052;2023-04-24T06:06:06;11.93;;;8.67;;
47539;SDS011;33280;52.152;21.052;2023-04-24T06:08:34;14.53;;;9.20;;
47539;SDS011;33280;52.152;21.052;2023-04-24T06:11:01;13.80;;;9.03;;
47539;SDS011;33280;52.152;21.052;2023-04-24T06:13:30;13.93;;;9.10;;
47539;SDS011;33280;52.152;21.052;2023-04-24T06:15:56;17.20;;;9.23;;
47539;SDS011;33280;52.152;21.052;2023-04-24T06:18:26;27.37;;;9.50;;
47539;SDS011;33280;52.152;21.052;2023-04-24T06:20:53;16.07;;;8.73;;
47539;SDS011;33280;52.152;21.052;2023-04-24T06:23:21;17.57;;;9.40;;
47539;SDS011;33280;52.152;21.052;2023-04-24T06:25:48;39.13;;;10.00;;
47539;SDS011;33280;52.152;21.052;2023-04-24T06:28:15;14.40;;;8.90;;
47539;SDS011;33280;52.152;21.052;2023-04-24T06:30:42;13.70;;;8.33;;
47539;SDS011;33280;52.152;21.052;2023-04-24T06:33:09;15.33;;;8.90;;
47539;SDS011;33280;52.152;21.052;2023-04-24T06:35:53;13.00;;;8.23;;
47539;SDS011;33280;52.152;21.052;2023-04-24T06:38:20;13.33;;;8.40;;
47539;SDS011;33280;52.152;21.052;2023-04-24T06:40:47;15.23;;;8.60;;
47539;SDS011;33280;52.152;21.052;2023-04-24T06:43:20;12.53;;;8.73;;
47539;SDS011;33280;52.152;21.052;2023-04-24T06:45:46;13.13;;;8.97;;
47539;SDS011;33280;52.152;21.052;2023-04-24T06:48:26;12.83;;;8.50;;
47539;SDS011;33280;52.152;21.052;2023-04-24T06:50:53;12.70;;;8.13;;
47539;SDS011;33280;52.152;21.052;2023-04-24T06:53:20;14.93;;;8.27;;
47539;SDS011;33280;52.152;21.052;2023-04-24T06:55:47;12.50;;;8.70;;
47539;SDS011;33280;52.152;21.052;2023-04-24T06:58:15;16.30;;;8.37;;
47539;SDS011;33280;52.152;21.052;2023-04-24T07:00:42;19.63;;;9.13;;
47539;SDS011;33280;52.152;21.052;2023-04-24T07:03:09;12.13;;;8.40;;
47539;SDS011;33280;52.152;21.052;2023-04-24T07:05:36;12.87;;;8.60;;
47539;SDS011;33280;52.152;21.052;2023-04-24T07:08:22;14.00;;;8.53;;
47539;SDS011;33280;52.152;21.052;2023-04-24T07:10:50;13.30;;;8.33;;
47539;SDS011;33280;52.152;21.052;2023-04-24T07:13:23;13.13;;;8.23;;
47539;SDS011;33280;52.152;21.052;2023-04-24T07:15:53;19.57;;;8.57;;
47539;SDS011;33280;52.152;21.052;2023-04-24T07:18:30;13.87;;;8.40;;
47539;SDS011;33280;52.152;21.052;2023-04-24T07:20:57;14.83;;;8.67;;
47539;SDS011;33280;52.152;21.052;2023-04-24T07:23:24;15.00;;;9.00;;
47539;SDS011;33280;52.152;21.052;2023-04-24T07:25:51;13.27;;;8.50;;
47539;SDS011;33280;52.152;21.052;2023-04-24T07:40:23;12.60;;;7.47;;
47539;SDS011;33280;52.152;21.052;2023-04-24T07:45:39;16.70;;;7.80;;
47539;SDS011;33280;52.152;21.052;2023-04-24T07:48:06;15.23;;;7.77;;
47539;SDS011;33280;52.152;21.052;2023-04-24T07:50:35;13.97;;;8.07;;
47539;SDS011;33280;52.152;21.052;2023-04-24T07:53:03;15.80;;;8.60;;
47539;SDS011;33280;52.152;21.052;2023-04-24T07:55:30;14.40;;;7.83;;
47539;SDS011;33280;52.152;21.052;2023-04-24T07:57:59;13.33;;;7.90;;
47539;SDS011;33280;52.152;21.052;2023-04-24T08:00:26;15.30;;;8.40;;
47539;SDS011;33280;52.152;21.052;2023-04-24T08:02:53;13.10;;;8.10;;
47539;SDS011;33280;52.152;21.052;2023-04-24T08:05:20;12.97;;;8.10;;
47539;SDS011;33280;52.152;21.052;2023-04-24T08:07:47;15.70;;;8.30;;
47539;SDS011;33280;52.152;21.052;2023-04-24T08:10:16;11.73;;;8.20;;
47539;SDS011;33280;52.152;21.052;2023-04-24T08:12:43;12.65;;;8.20;;
47539;SDS011;33280;52.152;21.052;2023-04-24T08:15:10;13.60;;;8.75;;
47539;SDS011;33280;52.152;21.052;2023-04-24T08:17:37;13.70;;;8.68;;
47539;SDS011;33280;52.152;21.052;2023-04-24T08:20:04;14.43;;;9.00;;
47539;SDS011;33280;52.152;21.052;2023-04-24T08:22:32;11.90;;;8.30;;
47539;SDS011;33280;52.152;21.052;2023-04-24T08:25:00;11.73;;;8.23;;
47539;SDS011;33280;52.152;21.052;2023-04-24T08:27:27;12.20;;;8.25;;
47539;SDS011;33280;52.152;21.052;2023-04-24T08:29:54;11.10;;;8.40;;
47539;SDS011;33280;52.152;21.052;2023-04-24T08:32:21;12.82;;;8.05;;
47539;SDS011;33280;52.152;21.052;2023-04-24T08:34:48;11.73;;;7.90;;
47539;SDS011;33280;52.152;21.052;2023-04-24T08:37:15;11.57;;;8.50;;
47539;SDS011;33280;52.152;21.052;2023-04-24T08:39:42;10.70;;;7.90;;
47539;SDS011;33280;52.152;21.052;2023-04-24T08:42:09;12.77;;;8.20;;
47539;SDS011;33280;52.152;21.052;2023-04-24T08:44:39;12.30;;;7.73;;
47539;SDS011;33280;52.152;21.052;2023-04-24T08:47:06;13.47;;;7.83;;
47539;SDS011;33280;52.152;21.052;2023-04-24T08:49:35;12.00;;;8.07;;
47539;SDS011;33280;52.152;21.052;2023-04-24T08:52:03;10.63;;;7.60;;
47539;SDS011;33280;52.152;21.052;2023-04-24T08:54:31;12.63;;;8.10;;
47539;SDS011;33280;52.152;21.052;2023-04-24T08:57:01;11.77;;;8.30;;
47539;SDS011;33280;52.152;21.052;2023-04-24T08:59:30;16.33;;;8.87;;
47539;SDS011;33280;52.152;21.052;2023-04-24T09:02:00;14.10;;;8.70;;
47539;SDS011;33280;52.152;21.052;2023-04-24T09:04:30;12.13;;;7.07;;
47539;SDS011;33280;52.152;21.052;2023-04-24T09:07:00;15.13;;;8.30;;
47539;SDS011;33280;52.152;21.052;2023-04-24T09:09:28;14.18;;;7.82;;
47539;SDS011;33280;52.152;21.052;2023-04-24T09:11:57;13.10;;;7.97;;
47539;SDS011;33280;52.152;21.052;2023-04-24T09:14:25;13.48;;;8.40;;
47539;SDS011;33280;52.152;21.052;2023-04-24T09:16:54;13.80;;;8.20;;
47539;SDS011;33280;52.152;21.052;2023-04-24T09:19:21;14.20;;;7.63;;
47539;SDS011;33280;52.152;21.052;2023-04-24T09:21:48;12.45;;;7.57;;
47539;SDS011;33280;52.152;21.052;2023-04-24T09:24:16;10.65;;;6.97;;
47539;SDS011;33280;52.152;21.052;2023-04-24T09:26:46;10.98;;;7.03;;
47539;SDS011;33280;52.152;21.052;2023-04-24T09:29:16;9.93;;;6.70;;
47539;SDS011;33280;52.152;21.052;2023-04-24T09:31:45;8.75;;;6.68;;
47539;SDS011;33280;52.152;21.052;2023-04-24T09:34:12;10.90;;;7.47;;
47539;SDS011;33280;52.152;21.052;2023-04-24T09:36:40;10.25;;;7.40;;
47539;SDS011;33280;52.152;21.052;2023-04-24T09:39:12;10.05;;;7.63;;
47539;SDS011;33280;52.152;21.052;2023-04-24T09:41:50;10.35;;;7.68;;
47539;SDS011;33280;52.152;21.052;2023-04-24T09:44:24;11.93;;;7.28;;
47539;SDS011;33280;52.152;21.052;2023-04-24T09:46:56;12.40;;;7.60;;
47539;SDS011;33280;52.152;21.052;2023-04-24T09:49:28;9.88;;;7.88;;
47539;SDS011;33280;52.152;21.052;2023-04-24T09:52:03;11.95;;;7.55;;
47539;SDS011;33280;52.152;21.052;2023-04-24T09:54:34;12.13;;;7.75;;
47539;SDS011;33280;52.152;21.052;2023-04-24T09:57:03;11.25;;;7.85;;
47539;SDS011;33280;52.152;21.052;2023-04-24T09:59:34;11.18;;;7.70;;
47539;SDS011;33280;52.152;21.052;2023-04-24T10:02:02;11.88;;;7.97;;
47539;SDS011;33280;52.152;21.052;2023-04-24T10:04:53;9.35;;;7.30;;
47539;SDS011;33280;52.152;21.052;2023-04-24T10:07:26;10.80;;;7.32;;
47539;SDS011;33280;52.152;21.052;2023-04-24T10:09:54;9.55;;;6.90;;
47539;SDS011;33280;52.152;21.052;2023-04-24T10:12:21;11.23;;;7.68;;
47539;SDS011;33280;52.152;21.052;2023-04-24T10:14:49;9.65;;;7.00;;
47539;SDS011;33280;52.152;21.052;2023-04-24T10:17:16;11.05;;;6.70;;
47539;SDS011;33280;52.152;21.052;2023-04-24T10:19:44;11.15;;;7.47;;
47539;SDS011;33280;52.152;21.052;2023-04-24T10:22:13;8.25;;;6.78;;
47539;SDS011;33280;52.152;21.052;2023-04-24T10:24:45;10.23;;;6.68;;
47539;SDS011;33280;52.152;21.052;2023-04-24T10:27:13;7.95;;;6.35;;
47539;SDS011;33280;52.152;21.052;2023-04-24T10:29:41;9.70;;;6.50;;
47539;SDS011;33280;52.152;21.052;2023-04-24T10:32:10;9.88;;;6.55;;
47539;SDS011;33280;52.152;21.052;2023-04-24T10:34:37;10.65;;;6.43;;
47539;SDS011;33280;52.152;21.052;2023-04-24T10:37:04;9.15;;;6.88;;
47539;SDS011;33280;52.152;21.052;2023-04-24T10:39:31;8.98;;;6.80;;
47539;SDS011;33280;52.152;21.052;2023-04-24T10:41:59;11.23;;;7.20;;
47539;SDS011;33280;52.152;21.052;2023-04-24T10:44:27;9.90;;;7.05;;
47539;SDS011;33280;52.152;21.052;2023-04-24T10:47:13;10.35;;;7.20;;
47539;SDS011;33280;52.152;21.052;2023-04-24T10:49:40;8.88;;;6.93;;
47539;SDS011;33280;52.152;21.052;2023-04-24T10:52:08;8.73;;;6.65;;
47539;SDS011;33280;52.152;21.052;2023-04-24T10:54:36;9.55;;;6.38;;
47539;SDS011;33280;52.152;21.052;2023-04-24T10:57:29;8.55;;;6.50;;
47539;SDS011;33280;52.152;21.052;2023-04-24T11:00:12;9.77;;;6.13;;
47539;SDS011;33280;52.152;21.052;2023-04-24T11:02:41;8.55;;;6.40;;
47539;SDS011;33280;52.152;21.052;2023-04-24T11:05:15;8.63;;;6.20;;
47539;SDS011;33280;52.152;21.052;2023-04-24T11:13:14;8.32;;;5.78;;
47539;SDS011;33280;52.152;21.052;2023-04-24T11:15:42;8.18;;;5.80;;
47539;SDS011;33280;52.152;21.052;2023-04-24T11:18:16;7.57;;;5.90;;
47539;SDS011;33280;52.152;21.052;2023-04-24T11:20:43;7.63;;;5.50;;
47539;SDS011;33280;52.152;21.052;2023-04-24T11:23:12;6.90;;;5.55;;
47539;SDS011;33280;52.152;21.052;2023-04-24T11:25:41;7.75;;;5.78;;
47539;SDS011;33280;52.152;21.052;2023-04-24T11:28:08;9.23;;;5.82;;
47539;SDS011;33280;52.152;21.052;2023-04-24T11:30:42;8.32;;;5.53;;
47539;SDS011;33280;52.152;21.052;2023-04-24T11:33:09;8.25;;;6.22;;
47539;SDS011;33280;52.152;21.052;2023-04-24T11:35:39;8.35;;;5.70;;
47539;SDS011;33280;52.152;21.052;2023-04-24T11:38:07;7.03;;;5.55;;
47539;SDS011;33280;52.152;21.052;2023-04-24T11:40:37;8.40;;;5.80;;
47539;SDS011;33280;52.152;21.052;2023-04-24T11:43:05;7.03;;;5.63;;
47539;SDS011;33280;52.152;21.052;2023-04-24T11:45:33;9.57;;;6.22;;
47539;SDS011;33280;52.152;21.052;2023-04-24T11:48:02;9.23;;;5.95;;
47539;SDS011;33280;52.152;21.052;2023-04-24T11:50:32;8.93;;;5.68;;
47539;SDS011;33280;52.152;21.052;2023-04-24T11:52:59;8.80;;;6.03;;
47539;SDS011;33280;52.152;21.052;2023-04-24T11:55:28;9.43;;;6.55;;
47539;SDS011;33280;52.152;21.052;2023-04-24T11:57:56;10.57;;;6.65;;
47539;SDS011;33280;52.152;21.052;2023-04-24T12:00:27;8.77;;;6.30;;
47539;SDS011;33280;52.152;21.052;2023-04-24T12:03:07;8.40;;;5.85;;
47539;SDS011;33280;52.152;21.052;2023-04-24T12:05:36;7.63;;;6.07;;
47539;SDS011;33280;52.152;21.052;2023-04-24T12:08:11;7.47;;;6.00;;
47539;SDS011;33280;52.152;21.052;2023-04-24T12:10:53;8.70;;;6.20;;
47539;SDS011;33280;52.152;21.052;2023-04-24T12:13:20;6.60;;;5.72;;
47539;SDS011;33280;52.152;21.052;2023-04-24T12:15:47;9.02;;;6.32;;
47539;SDS011;33280;52.152;21.052;2023-04-24T12:18:23;7.57;;;6.40;;
47539;SDS011;33280;52.152;21.052;2023-04-24T12:20:52;8.90;;;6.00;;
47539;SDS011;33280;52.152;21.052;2023-04-24T12:23:35;8.82;;;6.30;;
47539;SDS011;33280;52.152;21.052;2023-04-24T12:26:03;9.20;;;6.60;;
47539;SDS011;33280;52.152;21.052;2023-04-24T12:28:35;8.38;;;6.25;;
47539;SDS011;33280;52.152;21.052;2023-04-24T12:31:02;7.40;;;5.10;;
47539;SDS011;33280;52.152;21.052;2023-04-24T12:33:33;8.57;;;5.50;;
47539;SDS011;33280;52.152;21.052;2023-04-24T12:36:10;7.43;;;5.50;;
47539;SDS011;33280;52.152;21.052;2023-04-24T12:38:43;17.50;;;5.55;;
47539;SDS011;33280;52.152;21.052;2023-04-24T12:41:13;23.30;;;5.38;;
47539;SDS011;33280;52.152;21.052;2023-04-24T12:43:50;15.80;;;4.35;;
47539;SDS011;33280;52.152;21.052;2023-04-24T12:46:39;16.95;;;4.68;;
47539;SDS011;33280;52.152;21.052;2023-04-24T12:49:06;12.77;;;4.47;;
47539;SDS011;33280;52.152;21.052;2023-04-24T12:51:33;14.73;;;4.70;;
47539;SDS011;33280;52.152;21.052;2023-04-24T12:54:00;10.07;;;4.57;;
47539;SDS011;33280;52.152;21.052;2023-04-24T12:56:27;11.85;;;4.28;;
47539;SDS011;33280;52.152;21.052;2023-04-24T12:58:54;8.07;;;4.30;;
47539;SDS011;33280;52.152;21.052;2023-04-24T13:01:21;11.77;;;4.30;;
47539;SDS011;33280;52.152;21.052;2023-04-24T13:03:48;16.15;;;4.40;;
47539;SDS011;33280;52.152;21.052;2023-04-24T13:06:15;10.82;;;4.40;;
47539;SDS011;33280;52.152;21.052;2023-04-24T13:08:43;10.40;;;4.10;;
47539;SDS011;33280;52.152;21.052;2023-04-24T13:11:09;10.60;;;4.57;;
47539;SDS011;33280;52.152;21.052;2023-04-24T13:13:36;9.25;;;4.30;;
47539;SDS011;33280;52.152;21.052;2023-04-24T13:16:03;7.63;;;4.10;;
47539;SDS011;33280;52.152;21.052;2023-04-24T13:18:30;7.13;;;4.00;;
47539;SDS011;33280;52.152;21.052;2023-04-24T13:20:57;11.02;;;4.30;;
47539;SDS011;33280;52.152;21.052;2023-04-24T13:23:25;5.22;;;3.92;;
47539;SDS011;33280;52.152;21.052;2023-04-24T13:25:52;9.05;;;4.25;;
47539;SDS011;33280;52.152;21.052;2023-04-24T13:28:21;6.65;;;4.30;;
47539;SDS011;33280;52.152;21.052;2023-04-24T13:30:48;5.05;;;4.13;;
47539;SDS011;33280;52.152;21.052;2023-04-24T13:33:17;9.35;;;4.50;;
47539;SDS011;33280;52.152;21.052;2023-04-24T13:35:44;11.13;;;4.38;;
47539;SDS011;33280;52.152;21.052;2023-04-24T13:38:11;5.50;;;4.32;;
47539;SDS011;33280;52.152;21.052;2023-04-24T13:40:38;5.95;;;4.07;;
47539;SDS011;33280;52.152;21.052;2023-04-24T13:43:05;8.25;;;4.38;;
47539;SDS011;33280;52.152;21.052;2023-04-24T13:45:32;5.57;;;4.20;;
47539;SDS011;33280;52.152;21.052;2023-04-24T13:47:59;6.53;;;4.00;;
47539;SDS011;33280;52.152;21.052;2023-04-24T13:50:28;6.63;;;3.85;;
47539;SDS011;33280;52.152;21.052;2023-04-24T13:52:55;4.90;;;3.97;;
47539;SDS011;33280;52.152;21.052;2023-04-24T13:55:23;4.93;;;3.70;;
47539;SDS011;33280;52.152;21.052;2023-04-24T13:57:49;5.55;;;4.07;;
47539;SDS011;33280;52.152;21.052;2023-04-24T14:00:18;5.53;;;4.10;;
47539;SDS011;33280;52.152;21.052;2023-04-24T14:02:46;4.95;;;3.97;;
47539;SDS011;33280;52.152;21.052;2023-04-24T14:05:13;5.53;;;4.15;;
47539;SDS011;33280;52.152;21.052;2023-04-24T14:07:44;5.55;;;4.07;;
47539;SDS011;33280;52.152;21.052;2023-04-24T14:10:11;6.75;;;4.28;;
47539;SDS011;33280;52.152;21.052;2023-04-24T14:12:38;5.63;;;4.05;;
47539;SDS011;33280;52.152;21.052;2023-04-24T14:15:05;5.40;;;4.32;;
47539;SDS011;33280;52.152;21.052;2023-04-24T14:17:32;6.10;;;4.40;;
47539;SDS011;33280;52.152;21.052;2023-04-24T14:19:59;5.75;;;4.28;;
47539;SDS011;33280;52.152;21.052;2023-04-24T14:22:26;6.00;;;4.55;;
47539;SDS011;33280;52.152;21.052;2023-04-24T14:24:53;7.25;;;4.30;;
47539;SDS011;33280;52.152;21.052;2023-04-24T14:27:20;9.48;;;4.50;;
47539;SDS011;33280;52.152;21.052;2023-04-24T14:29:49;7.20;;;4.47;;
47539;SDS011;33280;52.152;21.052;2023-04-24T14:32:18;6.78;;;4.38;;
47539;SDS011;33280;52.152;21.052;2023-04-24T14:34:45;5.85;;;4.32;;
47539;SDS011;33280;52.152;21.052;2023-04-24T14:37:12;7.03;;;4.80;;
47539;SDS011;33280;52.152;21.052;2023-04-24T14:39:39;7.95;;;4.60;;
47539;SDS011;33280;52.152;21.052;2023-04-24T14:42:06;5.20;;;3.85;;
47539;SDS011;33280;52.152;21.052;2023-04-24T14:44:36;5.68;;;4.30;;
47539;SDS011;33280;52.152;21.052;2023-04-24T14:47:03;8.57;;;4.32;;
47539;SDS011;33280;52.152;21.052;2023-04-24T14:49:30;5.30;;;4.30;;
47539;SDS011;33280;52.152;21.052;2023-04-24T14:51:57;6.32;;;4.38;;
47539;SDS011;33280;52.152;21.052;2023-04-24T14:54:24;6.90;;;4.32;;